createdAt,value
2023-04-27T00:01:51.754Z,101576.47
2023-04-27T00:04:19.374Z,101580.31
2023-04-27T00:06:46.240Z,101573.72
2023-04-27T00:09:13.038Z,101579.56
2023-04-27T00:11:39.631Z,101574.69
2023-04-27T00:14:06.112Z,101589.03
2023-04-27T00:16:32.667Z,101577.56
2023-04-27T00:18:59.165Z,101576.75
2023-04-27T00:21:25.622Z,101578.53
2023-04-27T00:23:52.095Z,101578.91
2023-04-27T00:26:18.562Z,101578.91
2023-04-27T00:28:45.029Z,101577.66
2023-04-27T00:31:11.643Z,101570.63
2023-04-27T00:33:38.148Z,101572.56
2023-04-27T00:36:04.979Z,101570.56
2023-04-27T00:38:31.623Z,101573.94
2023-04-27T00:41:05.677Z,101569.06
2023-04-27T00:43:32.701Z,101575.56
2023-04-27T00:46:00.687Z,101575.63
2023-04-27T00:48:27.293Z,101576.31
2023-04-27T00:50:53.932Z,101577.16
2023-04-27T00:53:20.794Z,101574.81
2023-04-27T00:55:47.582Z,101583.06
2023-04-27T00:58:14.067Z,101578.41
2023-04-27T01:00:40.956Z,101584.03
2023-04-27T01:03:09.034Z,101585.97
2023-04-27T01:05:49.083Z,101580.13
2023-04-27T01:08:15.674Z,101584.97
2023-04-27T01:10:42.418Z,101593.97
2023-04-27T01:13:09.621Z,101590.50
2023-04-27T01:15:36.213Z,101590.22
2023-04-27T01:18:02.946Z,101592.19
2023-04-27T01:20:30.489Z,101590.38
2023-04-27T01:22:57.704Z,101597.50
2023-04-27T01:25:24.797Z,101594.81
2023-04-27T01:27:51.463Z,101594.56
2023-04-27T01:30:17.938Z,101599.75
2023-04-27T01:32:44.454Z,101603.03
2023-04-27T01:35:11.317Z,101597.50
2023-04-27T01:37:37.805Z,101601.53
2023-04-27T01:40:06.621Z,101593.78
2023-04-27T01:42:33.175Z,101597.81
2023-04-27T01:45:00.577Z,101602.00
2023-04-27T01:47:27.729Z,101593.28
2023-04-27T01:49:54.235Z,101609.06
2023-04-27T01:52:20.719Z,101607.97
2023-04-27T01:54:47.185Z,101602.47
2023-04-27T01:57:14.403Z,101607.56
2023-04-27T01:59:40.921Z,101598.31
2023-04-27T02:02:07.535Z,101598.84
2023-04-27T02:04:36.563Z,101608.75
2023-04-27T02:07:03.540Z,101605.22
2023-04-27T02:09:30.067Z,101604.91
2023-04-27T02:11:56.533Z,101608.53
2023-04-27T02:14:22.988Z,101615.59
2023-04-27T02:16:49.508Z,101619.41
2023-04-27T02:19:16.330Z,101611.25
2023-04-27T02:21:43.124Z,101624.56
2023-04-27T02:24:10.078Z,101619.25
2023-04-27T02:26:36.555Z,101619.53
2023-04-27T02:29:03.930Z,101616.25
2023-04-27T02:31:31.378Z,101622.63
2023-04-27T02:33:57.849Z,101628.56
2023-04-27T02:36:24.330Z,101628.53
2023-04-27T02:38:50.852Z,101625.38
2023-04-27T02:41:17.338Z,101627.78
2023-04-27T02:43:43.900Z,101629.97
2023-04-27T02:46:10.460Z,101630.81
2023-04-27T02:48:36.973Z,101633.59
2023-04-27T02:51:04.732Z,101636.66
2023-04-27T02:53:31.272Z,101633.84
2023-04-27T02:55:58.486Z,101631.59
2023-04-27T02:58:25.112Z,101633.03
2023-04-27T03:00:55.731Z,101631.81
2023-04-27T03:03:23.139Z,101634.06
2023-04-27T03:05:49.753Z,101629.72
2023-04-27T03:08:16.329Z,101632.28
2023-04-27T03:10:42.757Z,101624.38
2023-04-27T03:13:09.261Z,101627.88
2023-04-27T03:15:35.795Z,101630.19
2023-04-27T03:18:02.413Z,101630.91
2023-04-27T03:20:28.935Z,101628.75
2023-04-27T03:22:55.491Z,101626.53
2023-04-27T03:25:22.383Z,101641.81
2023-04-27T03:27:48.915Z,101639.44
2023-04-27T03:30:15.453Z,101639.72
2023-04-27T03:32:42.102Z,101638.19
2023-04-27T03:35:09.753Z,101637.75
2023-04-27T03:37:36.333Z,101635.50
2023-04-27T03:40:02.900Z,101635.38
2023-04-27T03:42:29.638Z,101637.44
2023-04-27T03:44:56.087Z,101643.94
2023-04-27T03:47:22.864Z,101640.38
2023-04-27T03:49:49.336Z,101634.25
2023-04-27T03:52:15.821Z,101638.47
2023-04-27T03:54:42.267Z,101643.59
2023-04-27T03:57:09.128Z,101641.41
2023-04-27T03:59:35.603Z,101644.50
2023-04-27T04:02:03.930Z,101646.97
2023-04-27T04:04:31.221Z,101640.03
2023-04-27T04:06:59.105Z,101638.19
2023-04-27T06:10:57.662Z,101696.41
2023-04-27T06:50:43.965Z,101710.88
2023-04-27T06:53:10.883Z,101718.97
2023-04-27T06:55:37.392Z,101702.72
2023-04-27T06:58:04.461Z,101718.03
2023-04-27T07:00:31.772Z,101708.91
2023-04-27T07:02:58.416Z,101714.06
2023-04-27T07:05:24.992Z,101723.94
2023-04-27T07:07:52.115Z,101715.97
2023-04-27T07:10:18.775Z,101718.88
2023-04-27T07:12:45.242Z,101722.97
2023-04-27T07:15:11.730Z,101716.22
2023-04-27T07:17:38.387Z,101718.50
2023-04-27T07:20:06.448Z,101721.84
2023-04-27T07:22:33.518Z,101715.28
2023-04-27T07:25:00.164Z,101715.28
2023-04-27T07:27:26.775Z,101705.78
2023-04-27T07:29:53.440Z,101694.53
2023-04-27T07:32:20.108Z,101709.38
2023-04-27T07:34:53.736Z,101719.69
2023-04-27T07:37:21.056Z,101717.13
2023-04-27T07:39:48.889Z,101720.38
2023-04-27T07:42:15.376Z,101714.66
2023-04-27T07:44:42.536Z,101723.19
2023-04-27T07:47:09.135Z,101716.97
2023-04-27T07:49:36.368Z,101727.56
2023-04-27T07:52:04.599Z,101733.09
2023-04-27T07:54:31.467Z,101734.91
2023-04-27T07:56:58.101Z,101743.00
2023-04-27T07:59:24.588Z,101739.72
2023-04-27T08:01:51.205Z,101745.47
2023-04-27T08:04:18.145Z,101735.88
2023-04-27T08:06:46.780Z,101726.19
2023-04-27T08:09:14.170Z,101731.97
2023-04-27T08:11:40.839Z,101734.06
2023-04-27T08:14:13.418Z,101728.75
2023-04-27T08:16:43.663Z,101732.75
2023-04-27T08:19:11.052Z,101728.38
2023-04-27T08:21:38.057Z,101728.69
2023-04-27T08:24:07.641Z,101730.91
2023-04-27T08:26:35.290Z,101721.94
2023-04-27T08:29:11.774Z,101734.84
2023-04-27T08:31:46.664Z,101720.88
2023-04-27T08:34:13.352Z,101731.50
2023-04-27T08:36:39.822Z,101716.63
2023-04-27T08:39:07.762Z,101717.63
2023-04-27T08:41:34.347Z,101730.22
2023-04-27T08:44:00.828Z,101714.88
2023-04-27T08:46:27.471Z,101724.53
2023-04-27T08:48:54.659Z,101724.31
2023-04-27T08:51:21.863Z,101715.63
2023-04-27T08:53:52.340Z,101723.75
2023-04-27T08:56:19.929Z,101709.66
2023-04-27T08:58:46.547Z,101696.03
2023-04-27T09:01:12.988Z,101702.72
2023-04-27T09:03:39.752Z,101685.66
2023-04-27T09:06:07.011Z,101684.91
2023-04-27T09:08:47.440Z,101695.63
2023-04-27T09:11:29.846Z,101703.06
2023-04-27T09:13:56.851Z,101693.06
2023-04-27T09:16:24.758Z,101687.97
2023-04-27T09:18:51.394Z,101686.97
2023-04-27T09:21:28.280Z,101684.22
2023-04-27T09:23:55.952Z,101692.66
2023-04-27T09:26:27.292Z,101701.88
2023-04-27T09:28:58.659Z,101691.00
2023-04-27T09:31:35.927Z,101692.41
2023-04-27T09:34:02.935Z,101689.81
2023-04-27T09:36:30.887Z,101702.06
2023-04-27T09:38:58.065Z,101685.72
2023-04-27T09:41:25.364Z,101690.91
2023-04-27T09:43:52.862Z,101693.72
2023-04-27T09:46:19.855Z,101701.91
2023-04-27T09:48:46.828Z,101715.38
2023-04-27T09:51:14.940Z,101710.63
2023-04-27T09:53:48.350Z,101716.94
2023-04-27T09:56:37.631Z,101706.06
2023-04-27T09:59:32.382Z,101710.44
2023-04-27T10:02:05.145Z,101705.13
2023-04-27T10:05:01.716Z,101712.50
2023-04-27T10:07:28.951Z,101714.91
2023-04-27T10:10:01.495Z,101703.94
2023-04-27T10:12:33.409Z,101697.88
2023-04-27T10:15:12.589Z,101707.56
2023-04-27T10:17:39.231Z,101712.31
2023-04-27T10:20:09.810Z,101700.94
2023-04-27T10:22:52.571Z,101701.34
2023-04-27T10:25:22.558Z,101687.38
2023-04-27T10:27:53.273Z,101691.03
2023-04-27T10:30:20.785Z,101708.59
2023-04-27T10:33:07.473Z,101699.56
2023-04-27T10:35:38.864Z,101699.06
2023-04-27T10:38:06.396Z,101708.75
2023-04-27T10:40:34.651Z,101723.72
2023-04-27T10:43:12.918Z,101725.44
2023-04-27T10:45:40.096Z,101723.69
2023-04-27T10:48:07.518Z,101733.44
2023-04-27T10:50:34.381Z,101736.78
2023-04-27T10:53:03.459Z,101739.03
2023-04-27T10:55:31.185Z,101747.59
2023-04-27T10:57:59.204Z,101739.94
2023-04-27T11:00:43.964Z,101754.53
2023-04-27T11:03:19.876Z,101749.69
2023-04-27T11:05:48.094Z,101760.91
2023-04-27T11:08:16.989Z,101759.19
2023-04-27T11:10:46.282Z,101766.22
2023-04-27T11:13:14.866Z,101749.88
2023-04-27T11:15:47.805Z,101755.44
2023-04-27T11:18:15.973Z,101757.81
2023-04-27T11:20:44.055Z,101747.47
2023-04-27T11:23:14.707Z,101747.13
2023-04-27T11:25:41.142Z,101762.00
2023-04-27T11:28:18.398Z,101751.66
2023-04-27T11:30:44.996Z,101754.50
2023-04-27T11:33:11.613Z,101760.97
2023-04-27T11:35:39.447Z,101747.91
2023-04-27T11:38:06.270Z,101756.16
2023-04-27T11:40:35.847Z,101748.09
2023-04-27T11:43:05.160Z,101756.31
2023-04-27T11:45:32.069Z,101752.47
2023-04-27T11:47:59.098Z,101752.09
2023-04-27T11:50:26.739Z,101762.59
2023-04-27T11:52:53.497Z,101761.66
2023-04-27T11:55:24.523Z,101770.53
2023-04-27T11:57:57.515Z,101764.34
2023-04-27T12:00:24.376Z,101763.44
2023-04-27T12:02:51.138Z,101758.50
2023-04-27T12:05:18.202Z,101754.06
2023-04-27T12:07:44.755Z,101766.34
2023-04-27T12:10:11.830Z,101774.16
2023-04-27T12:12:38.769Z,101757.63
2023-04-27T12:15:06.381Z,101764.53
2023-04-27T12:17:33.069Z,101761.19
2023-04-27T12:19:59.621Z,101770.25
2023-04-27T12:22:26.151Z,101774.91
2023-04-27T12:24:52.732Z,101779.78
2023-04-27T12:27:19.274Z,101780.03
2023-04-27T12:29:45.947Z,101772.94
2023-04-27T12:32:12.434Z,101790.97
2023-04-27T12:34:39.637Z,101790.09
2023-04-27T12:37:06.634Z,101787.78
2023-04-27T12:39:33.091Z,101786.91
2023-04-27T12:41:59.545Z,101779.31
2023-04-27T12:44:26.961Z,101780.59
2023-04-27T12:46:53.478Z,101796.63
2023-04-27T12:49:19.967Z,101789.03
2023-04-27T12:51:47.963Z,101789.06
2023-04-27T12:54:14.710Z,101793.38
2023-04-27T12:56:41.955Z,101781.41
2023-04-27T12:59:08.863Z,101789.59
2023-04-27T13:01:35.433Z,101780.34
2023-04-27T13:04:06.666Z,101779.09
2023-04-27T13:14:24.969Z,101784.22
2023-04-27T13:17:03.623Z,101786.16
2023-04-27T15:30:57.107Z,101777.44
2023-04-27T15:33:31.649Z,101776.94
2023-04-27T15:39:31.632Z,101773.78
2023-04-27T15:47:58.248Z,101753.28
2023-04-27T15:58:26.799Z,101758.41
2023-04-27T16:01:30.065Z,101750.81
2023-04-27T16:04:03.120Z,101746.03
2023-04-27T16:06:41.718Z,101747.41
2023-04-27T16:09:13.849Z,101747.34
2023-04-27T17:06:04.611Z,101730.34
2023-04-27T17:28:20.226Z,101731.50
2023-04-27T17:38:01.121Z,101728.88
2023-04-27T17:44:41.712Z,101729.44
2023-04-27T18:02:01.689Z,101724.53
2023-04-27T18:04:28.742Z,101714.94
2023-04-27T18:06:56.388Z,101720.41
2023-04-27T18:09:33.177Z,101714.47
2023-04-27T18:12:00.200Z,101721.59
2023-04-27T18:14:26.749Z,101728.50
2023-04-27T18:16:53.276Z,101730.63
2023-04-27T18:19:19.835Z,101726.84
2023-04-27T18:21:46.535Z,101717.34
2023-04-27T18:24:21.426Z,101730.56
2023-04-27T18:26:47.942Z,101724.56
2023-04-27T18:29:14.768Z,101729.50
2023-04-27T18:31:41.582Z,101727.53
2023-04-27T18:34:08.220Z,101722.94
2023-04-27T18:36:34.736Z,101722.56
2023-04-27T18:39:01.260Z,101723.09
2023-04-27T18:41:27.793Z,101724.81
2023-04-27T18:43:54.261Z,101722.31
2023-04-27T18:46:21.056Z,101725.03
2023-04-27T18:48:47.615Z,101716.84
2023-04-27T18:51:14.102Z,101720.13
2023-04-27T18:53:40.757Z,101725.69
2023-04-27T18:56:08.868Z,101732.69
2023-04-27T18:58:36.054Z,101721.94
2023-04-27T19:01:02.659Z,101720.13
2023-04-27T19:03:29.521Z,101731.97
2023-04-27T19:05:56.456Z,101733.28
2023-04-27T19:08:22.998Z,101730.91
2023-04-27T19:10:51.496Z,101727.59
2023-04-27T19:13:18.276Z,101732.50
2023-04-27T19:15:44.830Z,101737.19
2023-04-27T19:18:11.955Z,101733.53
2023-04-27T19:20:39.630Z,101734.50
2023-04-27T19:23:08.032Z,101738.16
2023-04-27T19:25:34.723Z,101731.66
2023-04-27T19:28:01.344Z,101738.50
2023-04-27T19:30:27.920Z,101742.59
2023-04-27T19:32:54.593Z,101736.09
2023-04-27T19:35:23.660Z,101730.53
2023-04-27T19:37:50.873Z,101738.91
2023-04-27T19:40:18.117Z,101746.97
2023-04-27T19:42:44.700Z,101741.53
2023-04-27T19:45:11.449Z,101741.66
2023-04-27T19:47:37.931Z,101749.22
2023-04-27T19:50:05.043Z,101738.75
2023-04-27T19:52:31.641Z,101741.66
2023-04-27T19:54:58.300Z,101733.63
2023-04-27T19:57:24.759Z,101737.97
2023-04-27T19:59:51.321Z,101741.03
2023-04-27T20:02:17.837Z,101742.84
2023-04-27T20:04:44.543Z,101738.53
2023-04-27T20:07:12.103Z,101747.56
2023-04-27T20:09:38.593Z,101741.50
2023-04-27T20:12:05.202Z,101734.28
2023-04-27T20:14:35.057Z,101736.69
2023-04-27T20:17:03.065Z,101739.47
2023-04-27T20:19:30.100Z,101731.03
2023-04-27T20:21:56.721Z,101737.22
2023-04-27T20:24:23.412Z,101735.94
2023-04-27T20:26:49.908Z,101728.09
2023-04-27T20:29:16.376Z,101738.47
2023-04-27T20:31:42.966Z,101738.13
2023-04-27T20:34:09.458Z,101732.03
2023-04-27T20:36:36.499Z,101735.25
2023-04-27T20:39:04.324Z,101731.56
2023-04-27T20:41:31.111Z,101728.00
2023-04-27T20:43:58.595Z,101732.03
2023-04-27T20:46:25.051Z,101732.16
2023-04-27T20:48:51.633Z,101721.78
2023-04-27T20:51:18.435Z,101725.22
2023-04-27T20:53:44.900Z,101729.88
2023-04-27T20:56:12.087Z,101725.44
2023-04-27T20:58:38.552Z,101726.72
2023-04-27T21:01:05.137Z,101731.41
2023-04-27T21:03:31.823Z,101728.81
2023-04-27T21:05:58.394Z,101720.09
2023-04-27T21:08:25.011Z,101726.91
2023-04-27T21:10:51.527Z,101727.34
2023-04-27T21:13:17.986Z,101724.38
2023-04-27T21:15:44.433Z,101717.59
2023-04-27T21:18:19.153Z,101723.19
2023-04-27T21:20:55.398Z,101729.69
2023-04-27T21:23:21.833Z,101719.06
2023-04-27T21:25:48.347Z,101718.03
2023-04-27T21:28:14.828Z,101719.59
2023-04-27T21:30:41.509Z,101721.34
2023-04-27T21:33:08.061Z,101720.31
2023-04-27T21:35:34.905Z,101716.78
2023-04-27T21:38:01.835Z,101714.66
2023-04-27T21:40:28.301Z,101709.63
2023-04-27T21:42:55.211Z,101713.53
2023-04-27T21:45:21.678Z,101711.84
2023-04-27T21:47:48.211Z,101715.38
2023-04-27T21:50:16.588Z,101718.38
2023-04-27T21:52:43.360Z,101704.09
2023-04-27T21:55:10.094Z,101713.84
2023-04-27T21:57:36.876Z,101717.28
2023-04-27T22:00:13.167Z,101714.47
2023-04-27T22:02:42.443Z,101713.38
2023-04-27T22:05:12.265Z,101717.16
2023-04-27T22:07:38.969Z,101707.16
2023-04-27T22:10:06.188Z,101712.78
2023-04-27T22:12:33.433Z,101709.16
2023-04-27T22:15:00.036Z,101715.50
2023-04-27T22:17:26.626Z,101701.38
2023-04-27T22:19:53.465Z,101709.81
2023-04-27T22:22:19.943Z,101702.88
2023-04-27T22:24:47.486Z,101696.16
2023-04-27T22:27:13.988Z,101703.03
2023-04-27T22:29:40.455Z,101705.63
2023-04-27T22:32:07.522Z,101704.38
2023-04-27T22:34:34.034Z,101692.25
2023-04-27T22:37:00.641Z,101693.88
2023-04-27T22:39:27.183Z,101695.38
2023-04-27T22:41:53.733Z,101694.63
2023-04-27T22:44:20.402Z,101695.38
2023-04-27T22:46:46.945Z,101697.75
2023-04-27T22:49:14.963Z,101692.78
2023-04-27T22:51:41.456Z,101700.59
2023-04-27T22:54:07.899Z,101704.78
2023-04-27T22:56:34.371Z,101705.25
2023-04-27T22:59:00.906Z,101704.50
2023-04-27T23:01:27.390Z,101703.88
2023-04-27T23:03:54.216Z,101696.31
2023-04-27T23:06:21.205Z,101695.03
2023-04-27T23:08:48.079Z,101693.22
2023-04-27T23:11:15.492Z,101692.25
2023-04-27T23:13:42.110Z,101688.03
2023-04-27T23:16:09.972Z,101686.50
2023-04-27T23:18:36.666Z,101681.97
2023-04-27T23:21:03.303Z,101694.94
2023-04-27T23:23:29.832Z,101686.31
2023-04-27T23:25:56.289Z,101684.81
2023-04-27T23:28:22.746Z,101678.03
2023-04-27T23:30:54.369Z,101668.19
2023-04-27T23:33:21.815Z,101680.84
2023-04-27T23:35:48.343Z,101673.38
2023-04-27T23:38:14.851Z,101670.22
2023-04-27T23:40:41.347Z,101663.50
2023-04-27T23:43:07.800Z,101677.47
2023-04-27T23:45:34.272Z,101667.38
2023-04-27T23:48:00.857Z,101665.13
2023-04-27T23:50:27.326Z,101671.19
2023-04-27T23:52:53.776Z,101668.63
2023-04-27T23:55:20.429Z,101663.75
2023-04-27T23:57:47.016Z,101657.78
